sensor_id;sensor_type;location;lat;lon;timestamp;pressure;altitude;pressure_sealevel;temperature;humidity
28648;BME280;17137;51.494;-0.262;2023-06-22T15:17:22;64275.46;;;21.72;57.58
28648;BME280;17137;51.494;-0.262;2023-06-22T15:17:52;49385.98;;;-145.72;27.86
28648;BME280;17137;51.494;-0.262;2023-06-22T15:18:22;49379.57;;;-145.72;27.75
28648;BME280;17137;51.494;-0.262;2023-06-22T15:18:52;49376.00;;;-145.72;27.51
28648;BME280;17137;51.494;-0.262;2023-06-22T15:19:23;49374.77;;;-145.72;27.44
28648;BME280;17137;51.494;-0.262;2023-06-22T15:19:53;49370.70;;;-145.72;27.32
28648;BME280;17137;51.494;-0.262;2023-06-22T15:20:23;49368.98;;;-145.72;27.41
28648;BME280;17137;51.494;-0.262;2023-06-22T15:20:53;49375.14;;;-145.72;27.37
28648;BME280;17137;51.494;-0.262;2023-06-22T15:21:24;49362.07;;;-145.72;27.35
28648;BME280;17137;51.494;-0.262;2023-06-22T15:21:54;49361.83;;;-145.72;27.32
28648;BME280;17137;51.494;-0.262;2023-06-22T15:22:24;49369.71;;;-145.72;27.13
28648;BME280;17137;51.494;-0.262;2023-06-22T15:22:56;49347.65;;;-145.72;27.08
28648;BME280;17137;51.494;-0.262;2023-06-22T15:23:27;49351.23;;;-145.72;27.16
28648;BME280;17137;51.494;-0.262;2023-06-22T15:23:57;49350.98;;;-145.72;26.94
28648;BME280;17137;51.494;-0.262;2023-06-22T15:24:27;49342.48;;;-145.72;26.87
28648;BME280;17137;51.494;-0.262;2023-06-22T15:24:57;49346.18;;;-145.72;26.87
28648;BME280;17137;51.494;-0.262;2023-06-22T15:25:57;49342.11;;;-145.72;26.80
28648;BME280;17137;51.494;-0.262;2023-06-22T15:26:27;49345.44;;;-145.72;26.83
28648;BME280;17137;51.494;-0.262;2023-06-22T15:26:57;49344.94;;;-145.72;26.86
28648;BME280;17137;51.494;-0.262;2023-06-22T15:27:27;49344.57;;;-145.72;26.78
28648;BME280;17137;51.494;-0.262;2023-06-22T15:27:59;49337.80;;;-145.72;26.80
28648;BME280;17137;51.494;-0.262;2023-06-22T15:28:29;49327.81;;;-145.72;26.81
28648;BME280;17137;51.494;-0.262;2023-06-22T15:28:59;49335.70;;;-145.72;26.86
28648;BME280;17137;51.494;-0.262;2023-06-22T15:29:30;49333.85;;;-145.72;26.85
28648;BME280;17137;51.494;-0.262;2023-06-22T15:30:00;49338.90;;;-145.72;26.91
28648;BME280;17137;51.494;-0.262;2023-06-22T15:30:30;49336.69;;;-145.72;26.94
28648;BME280;17137;51.494;-0.262;2023-06-22T15:31:00;49330.15;;;-145.72;27.05
28648;BME280;17137;51.494;-0.262;2023-06-22T15:31:31;49328.55;;;-145.72;27.03
28648;BME280;17137;51.494;-0.262;2023-06-22T15:32:01;49334.10;;;-145.72;26.86
28648;BME280;17137;51.494;-0.262;2023-06-22T15:32:32;49332.25;;;-145.72;26.74
28648;BME280;17137;51.494;-0.262;2023-06-22T15:33:02;49337.43;;;-145.72;26.88
28648;BME280;17137;51.494;-0.262;2023-06-22T15:33:32;49331.51;;;-145.72;26.82
28648;BME280;17137;51.494;-0.262;2023-06-22T15:34:02;49337.06;;;-145.72;26.91
28648;BME280;17137;51.494;-0.262;2023-06-22T15:34:32;49327.57;;;-145.72;26.91
28648;BME280;17137;51.494;-0.262;2023-06-22T15:35:03;49326.58;;;-145.72;26.92
28648;BME280;17137;51.494;-0.262;2023-06-22T15:35:33;49324.12;;;-145.72;26.91
28648;BME280;17137;51.494;-0.262;2023-06-22T15:36:04;49322.14;;;-145.72;26.92
28648;BME280;17137;51.494;-0.262;2023-06-22T15:36:34;49316.48;;;-145.72;26.89
28648;BME280;17137;51.494;-0.262;2023-06-22T15:37:05;49312.28;;;-145.72;26.83
28648;BME280;17137;51.494;-0.262;2023-06-22T15:37:35;49317.34;;;-145.72;26.75
28648;BME280;17137;51.494;-0.262;2023-06-22T15:38:05;49313.27;;;-145.72;26.72
28648;BME280;17137;51.494;-0.262;2023-06-22T15:38:35;49309.70;;;-145.72;26.56
28648;BME280;17137;51.494;-0.262;2023-06-22T15:39:06;49302.30;;;-145.72;26.43
28648;BME280;17137;51.494;-0.262;2023-06-22T15:39:36;49312.90;;;-145.72;26.38
28648;BME280;17137;51.494;-0.262;2023-06-22T15:40:07;49317.34;;;-145.72;26.44
28648;BME280;17137;51.494;-0.262;2023-06-22T15:40:37;49308.34;;;-145.72;26.39
28648;BME280;17137;51.494;-0.262;2023-06-22T15:41:08;49296.02;;;-145.72;26.40
28648;BME280;17137;51.494;-0.262;2023-06-22T15:41:39;49298.61;;;-145.72;26.37
28648;BME280;17137;51.494;-0.262;2023-06-22T15:42:10;49307.73;;;-145.72;26.57
28648;BME280;17137;51.494;-0.262;2023-06-22T15:42:40;49298.85;;;-145.72;26.55
28648;BME280;17137;51.494;-0.262;2023-06-22T15:43:10;49300.95;;;-145.72;26.50
28648;BME280;17137;51.494;-0.262;2023-06-22T15:43:40;49305.63;;;-145.72;26.47
28648;BME280;17137;51.494;-0.262;2023-06-22T15:44:10;49291.46;;;-145.72;26.46
28648;BME280;17137;51.494;-0.262;2023-06-22T15:44:41;49287.02;;;-145.72;26.53
28648;BME280;17137;51.494;-0.262;2023-06-22T15:45:11;49288.50;;;-145.72;26.39
28648;BME280;17137;51.494;-0.262;2023-06-22T15:45:41;49291.46;;;-145.72;26.43
28648;BME280;17137;51.494;-0.262;2023-06-22T15:46:11;49298.36;;;-145.72;26.54
28648;BME280;17137;51.494;-0.262;2023-06-22T15:46:41;49304.03;;;-145.72;26.74
28648;BME280;17137;51.494;-0.262;2023-06-22T15:47:11;49304.89;;;-145.72;26.87
28648;BME280;17137;51.494;-0.262;2023-06-22T15:47:42;49303.78;;;-145.72;26.78
28648;BME280;17137;51.494;-0.262;2023-06-22T15:48:12;49308.59;;;-145.72;26.92
28648;BME280;17137;51.494;-0.262;2023-06-22T15:48:42;49311.67;;;-145.72;26.95
28648;BME280;17137;51.494;-0.262;2023-06-22T15:49:13;49311.67;;;-145.72;26.93
28648;BME280;17137;51.494;-0.262;2023-06-22T15:49:43;49322.51;;;-145.72;27.06
28648;BME280;17137;51.494;-0.262;2023-06-22T15:50:13;49327.94;;;-145.72;27.11
28648;BME280;17137;51.494;-0.262;2023-06-22T15:50:43;49324.98;;;-145.72;27.15
28648;BME280;17137;51.494;-0.262;2023-06-22T15:51:14;49321.16;;;-145.72;26.99
28648;BME280;17137;51.494;-0.262;2023-06-22T15:51:44;49312.78;;;-145.72;26.94
28648;BME280;17137;51.494;-0.262;2023-06-22T15:52:14;49314.13;;;-145.72;26.87
28648;BME280;17137;51.494;-0.262;2023-06-22T15:52:44;49321.77;;;-145.72;26.84
28648;BME280;17137;51.494;-0.262;2023-06-22T15:53:15;49309.08;;;-145.72;26.72
28648;BME280;17137;51.494;-0.262;2023-06-22T15:53:45;49310.31;;;-145.72;26.76
28648;BME280;17137;51.494;-0.262;2023-06-22T15:54:15;49307.60;;;-145.72;26.62
28648;BME280;17137;51.494;-0.262;2023-06-22T15:54:46;49308.96;;;-145.72;26.66
28648;BME280;17137;51.494;-0.262;2023-06-22T15:55:18;49303.54;;;-145.72;26.50
28648;BME280;17137;51.494;-0.262;2023-06-22T15:55:48;49305.63;;;-145.72;26.43
28648;BME280;17137;51.494;-0.262;2023-06-22T15:56:18;49295.65;;;-145.72;26.41
28648;BME280;17137;51.494;-0.262;2023-06-22T15:56:48;49297.62;;;-145.72;26.41
28648;BME280;17137;51.494;-0.262;2023-06-22T15:57:19;49291.70;;;-145.72;26.40
28648;BME280;17137;51.494;-0.262;2023-06-22T15:57:49;49304.03;;;-145.72;26.35
28648;BME280;17137;51.494;-0.262;2023-06-22T15:58:19;49304.15;;;-145.72;26.35
28648;BME280;17137;51.494;-0.262;2023-06-22T15:58:50;49309.08;;;-145.72;26.31
28648;BME280;17137;51.494;-0.262;2023-06-22T15:59:20;49301.93;;;-145.72;26.06
28648;BME280;17137;51.494;-0.262;2023-06-22T15:59:50;49292.94;;;-145.72;26.02
28648;BME280;17137;51.494;-0.262;2023-06-22T16:00:21;49296.63;;;-145.72;26.04
28648;BME280;17137;51.494;-0.262;2023-06-22T16:00:51;49297.62;;;-145.72;26.07
28648;BME280;17137;51.494;-0.262;2023-06-22T16:01:22;49293.43;;;-145.72;25.91
28648;BME280;17137;51.494;-0.262;2023-06-22T16:01:52;49284.43;;;-145.72;25.83
28648;BME280;17137;51.494;-0.262;2023-06-22T16:02:22;49293.43;;;-145.72;25.84
28648;BME280;17137;51.494;-0.262;2023-06-22T16:02:52;49300.08;;;-145.72;25.89
28648;BME280;17137;51.494;-0.262;2023-06-22T16:03:22;49300.45;;;-145.72;26.05
28648;BME280;17137;51.494;-0.262;2023-06-22T16:03:53;49301.32;;;-145.72;26.00
28648;BME280;17137;51.494;-0.262;2023-06-22T16:04:23;49284.93;;;-145.72;25.93
28648;BME280;17137;51.494;-0.262;2023-06-22T16:04:53;49303.66;;;-145.72;26.12
28648;BME280;17137;51.494;-0.262;2023-06-22T16:05:23;49295.03;;;-145.72;26.15
28648;BME280;17137;51.494;-0.262;2023-06-22T16:05:53;49293.43;;;-145.72;26.20
28648;BME280;17137;51.494;-0.262;2023-06-22T16:06:24;49303.78;;;-145.72;26.44
28648;BME280;17137;51.494;-0.262;2023-06-22T16:06:54;49318.45;;;-145.72;26.64
28648;BME280;17137;51.494;-0.262;2023-06-22T16:07:24;49311.42;;;-145.72;26.66
28648;BME280;17137;51.494;-0.262;2023-06-22T16:07:55;49312.41;;;-145.72;26.72
28648;BME280;17137;51.494;-0.262;2023-06-22T16:08:26;49305.14;;;-145.72;26.57
28648;BME280;17137;51.494;-0.262;2023-06-22T16:08:56;49311.92;;;-145.72;26.59
28648;BME280;17137;51.494;-0.262;2023-06-22T16:09:26;49300.08;;;-145.72;26.52
28648;BME280;17137;51.494;-0.262;2023-06-22T16:09:56;49307.36;;;-145.72;26.58
28648;BME280;17137;51.494;-0.262;2023-06-22T16:10:27;49297.00;;;-145.72;26.56
28648;BME280;17137;51.494;-0.262;2023-06-22T16:10:57;49295.89;;;-145.72;26.62
28648;BME280;17137;51.494;-0.262;2023-06-22T16:11:27;49297.74;;;-145.72;26.66
28648;BME280;17137;51.494;-0.262;2023-06-22T16:11:57;49287.64;;;-145.72;26.77
28648;BME280;17137;51.494;-0.262;2023-06-22T16:12:27;49293.80;;;-145.72;26.92
28648;BME280;17137;51.494;-0.262;2023-06-22T16:12:57;49295.65;;;-145.72;27.05
28648;BME280;17137;51.494;-0.262;2023-06-22T16:13:28;49306.99;;;-145.72;27.15
28648;BME280;17137;51.494;-0.262;2023-06-22T16:13:58;49296.88;;;-145.72;27.17
28648;BME280;17137;51.494;-0.262;2023-06-22T16:14:28;49298.36;;;-145.72;27.16
28648;BME280;17137;51.494;-0.262;2023-06-22T16:14:58;49287.27;;;-145.72;27.21
28648;BME280;17137;51.494;-0.262;2023-06-22T16:15:28;49304.89;;;-145.72;27.36
28648;BME280;17137;51.494;-0.262;2023-06-22T16:15:58;49293.68;;;-145.72;27.40
28648;BME280;17137;51.494;-0.262;2023-06-22T16:16:58;49295.03;;;-145.72;27.54
28648;BME280;17137;51.494;-0.262;2023-06-22T16:17:28;49293.18;;;-145.72;27.49
28648;BME280;17137;51.494;-0.262;2023-06-22T16:18:03;49289.86;;;-145.72;27.46
28648;BME280;17137;51.494;-0.262;2023-06-22T16:18:33;49295.15;;;-145.72;27.56
28648;BME280;17137;51.494;-0.262;2023-06-22T16:19:04;49313.76;;;-145.72;27.85
28648;BME280;17137;51.494;-0.262;2023-06-22T16:19:34;49299.47;;;-145.72;27.74
28648;BME280;17137;51.494;-0.262;2023-06-22T16:20:05;49296.14;;;-145.72;27.67
28648;BME280;17137;51.494;-0.262;2023-06-22T16:20:35;49302.43;;;-145.72;27.67
28648;BME280;17137;51.494;-0.262;2023-06-22T16:21:05;49304.77;;;-145.72;27.73
28648;BME280;17137;51.494;-0.262;2023-06-22T16:21:35;49303.29;;;-145.72;27.86
28648;BME280;17137;51.494;-0.262;2023-06-22T16:22:06;49319.56;;;-145.72;28.00
28648;BME280;17137;51.494;-0.262;2023-06-22T16:22:36;49327.81;;;-145.72;28.20
28648;BME280;17137;51.494;-0.262;2023-06-22T16:23:06;49342.11;;;-145.72;28.35
28648;BME280;17137;51.494;-0.262;2023-06-22T16:23:37;49336.19;;;-145.72;28.27
28648;BME280;17137;51.494;-0.262;2023-06-22T16:24:07;49333.36;;;-145.72;28.27
28648;BME280;17137;51.494;-0.262;2023-06-22T16:24:37;49341.62;;;-145.72;28.43
28648;BME280;17137;51.494;-0.262;2023-06-22T16:25:08;49363.68;;;-145.72;28.63
28648;BME280;17137;51.494;-0.262;2023-06-22T16:25:39;49342.85;;;-145.72;28.49
28648;BME280;17137;51.494;-0.262;2023-06-22T16:26:09;49346.42;;;-145.72;28.39
28648;BME280;17137;51.494;-0.262;2023-06-22T16:26:40;49339.27;;;-145.72;28.35
28648;BME280;17137;51.494;-0.262;2023-06-22T16:27:11;49334.71;;;-145.72;28.32
28648;BME280;17137;51.494;-0.262;2023-06-22T16:27:41;49345.56;;;-145.72;28.33
28648;BME280;17137;51.494;-0.262;2023-06-22T16:28:13;49338.90;;;-145.72;28.30
28648;BME280;17137;51.494;-0.262;2023-06-22T16:28:43;49342.85;;;-145.72;28.31
28648;BME280;17137;51.494;-0.262;2023-06-22T16:29:14;49338.66;;;-145.72;28.26
28648;BME280;17137;51.494;-0.262;2023-06-22T16:29:44;49351.97;;;-145.72;28.48
28648;BME280;17137;51.494;-0.262;2023-06-22T16:30:14;49346.42;;;-145.72;28.38
28648;BME280;17137;51.494;-0.262;2023-06-22T16:30:44;49362.94;;;-145.72;28.45
28648;BME280;17137;51.494;-0.262;2023-06-22T16:31:14;49361.33;;;-145.72;28.57
28648;BME280;17137;51.494;-0.262;2023-06-22T16:31:45;49347.53;;;-145.72;28.41
28648;BME280;17137;51.494;-0.262;2023-06-22T16:32:15;49341.12;;;-145.72;28.30
28648;BME280;17137;51.494;-0.262;2023-06-22T16:32:53;49341.00;;;-145.72;28.24
28648;BME280;17137;51.494;-0.262;2023-06-22T16:33:23;49334.22;;;-145.72;28.20
28648;BME280;17137;51.494;-0.262;2023-06-22T16:33:54;49354.80;;;-145.72;28.53
28648;BME280;17137;51.494;-0.262;2023-06-22T16:34:24;49359.24;;;-145.72;28.61
28648;BME280;17137;51.494;-0.262;2023-06-22T16:34:54;49357.02;;;-145.72;28.63
28648;BME280;17137;51.494;-0.262;2023-06-22T16:35:24;49347.65;;;-145.72;28.62
28648;BME280;17137;51.494;-0.262;2023-06-22T16:35:55;49347.90;;;-145.72;28.42
28648;BME280;17137;51.494;-0.262;2023-06-22T16:36:25;49351.11;;;-145.72;28.54
28648;BME280;17137;51.494;-0.262;2023-06-22T16:36:55;49349.13;;;-145.72;28.46
28648;BME280;17137;51.494;-0.262;2023-06-22T16:37:25;49339.89;;;-145.72;28.43
28648;BME280;17137;51.494;-0.262;2023-06-22T16:37:56;49350.86;;;-145.72;28.35
28648;BME280;17137;51.494;-0.262;2023-06-22T16:38:26;49341.25;;;-145.72;28.38
28648;BME280;17137;51.494;-0.262;2023-06-22T16:38:56;49338.90;;;-145.72;28.39
28648;BME280;17137;51.494;-0.262;2023-06-22T16:39:26;49341.49;;;-145.72;28.41
28648;BME280;17137;51.494;-0.262;2023-06-22T16:39:56;49338.41;;;-145.72;28.35
28648;BME280;17137;51.494;-0.262;2023-06-22T16:40:27;49335.08;;;-145.72;28.42
28648;BME280;17137;51.494;-0.262;2023-06-22T16:40:57;49338.29;;;-145.72;28.49
28648;BME280;17137;51.494;-0.262;2023-06-22T16:41:27;49342.97;;;-145.72;28.68
28648;BME280;17137;51.494;-0.262;2023-06-22T16:41:58;49344.94;;;-145.72;28.68
28648;BME280;17137;51.494;-0.262;2023-06-22T16:42:28;49347.53;;;-145.72;28.57
28648;BME280;17137;51.494;-0.262;2023-06-22T16:43:03;49336.32;;;-145.72;28.44
28648;BME280;17137;51.494;-0.262;2023-06-22T16:43:33;49340.63;;;-145.72;28.39
28648;BME280;17137;51.494;-0.262;2023-06-22T16:44:04;49336.19;;;-145.72;28.31
28648;BME280;17137;51.494;-0.262;2023-06-22T16:44:34;49339.40;;;-145.72;28.42
28648;BME280;17137;51.494;-0.262;2023-06-22T16:45:05;49342.48;;;-145.72;28.25
28648;BME280;17137;51.494;-0.262;2023-06-22T16:45:35;49336.44;;;-145.72;28.17
28648;BME280;17137;51.494;-0.262;2023-06-22T16:46:05;49335.33;;;-145.72;28.13
28648;BME280;17137;51.494;-0.262;2023-06-22T16:46:36;49340.26;;;-145.72;28.21
28648;BME280;17137;51.494;-0.262;2023-06-22T16:47:06;49337.06;;;-145.72;28.16
28648;BME280;17137;51.494;-0.262;2023-06-22T16:47:36;49332.13;;;-145.72;28.28
28648;BME280;17137;51.494;-0.262;2023-06-22T16:48:06;49333.48;;;-145.72;28.10
28648;BME280;17137;51.494;-0.262;2023-06-22T16:48:38;49332.13;;;-145.72;28.02
28648;BME280;17137;51.494;-0.262;2023-06-22T16:49:08;49332.37;;;-145.72;27.92
28648;BME280;17137;51.494;-0.262;2023-06-22T16:49:38;49336.93;;;-145.72;27.92
28648;BME280;17137;51.494;-0.262;2023-06-22T16:50:09;49343.83;;;-145.72;28.14
28648;BME280;17137;51.494;-0.262;2023-06-22T16:50:40;49331.02;;;-145.72;28.07
28648;BME280;17137;51.494;-0.262;2023-06-22T16:51:11;49336.07;;;-145.72;28.00
28648;BME280;17137;51.494;-0.262;2023-06-22T16:51:41;49338.41;;;-145.72;28.03
28648;BME280;17137;51.494;-0.262;2023-06-22T16:52:11;49331.39;;;-145.72;27.98
28648;BME280;17137;51.494;-0.262;2023-06-22T16:52:42;49337.18;;;-145.72;27.92
28648;BME280;17137;51.494;-0.262;2023-06-22T16:53:12;49339.27;;;-145.72;28.03
28648;BME280;17137;51.494;-0.262;2023-06-22T16:53:43;49340.01;;;-145.72;28.14
28648;BME280;17137;51.494;-0.262;2023-06-22T16:54:14;49329.17;;;-145.72;28.17
28648;BME280;17137;51.494;-0.262;2023-06-22T16:54:45;49336.07;;;-145.72;29.15
28648;BME280;17137;51.494;-0.262;2023-06-22T16:55:16;49352.46;;;-145.72;30.42
28648;BME280;17137;51.494;-0.262;2023-06-22T16:55:47;49352.58;;;-145.72;30.71
28648;BME280;17137;51.494;-0.262;2023-06-22T16:56:18;49352.95;;;-145.72;31.07
28648;BME280;17137;51.494;-0.262;2023-06-22T16:56:48;49352.46;;;-145.72;31.08
28648;BME280;17137;51.494;-0.262;2023-06-22T16:57:20;49348.39;;;-145.72;31.27
28648;BME280;17137;51.494;-0.262;2023-06-22T16:57:51;49356.40;;;-145.72;31.64
28648;BME280;17137;51.494;-0.262;2023-06-22T16:58:23;49337.43;;;-145.72;31.59
28648;BME280;17137;51.494;-0.262;2023-06-22T16:58:55;49348.52;;;-145.72;31.68
28648;BME280;17137;51.494;-0.262;2023-06-22T16:59:26;49343.71;;;-145.72;31.93
28648;BME280;17137;51.494;-0.262;2023-06-22T16:59:56;49348.64;;;-145.72;31.89
28648;BME280;17137;51.494;-0.262;2023-06-22T17:00:27;49340.63;;;-145.72;31.91
28648;BME280;17137;51.494;-0.262;2023-06-22T17:00:57;49352.71;;;-145.72;32.16
28648;BME280;17137;51.494;-0.262;2023-06-22T17:01:29;49368.11;;;-145.72;32.42
28648;BME280;17137;51.494;-0.262;2023-06-22T17:02:03;49367.25;;;-145.72;32.53
28648;BME280;17137;51.494;-0.262;2023-06-22T17:02:35;49377.85;;;-145.72;32.79
28648;BME280;17137;51.494;-0.262;2023-06-22T17:03:08;49380.07;;;-145.72;32.86
28648;BME280;17137;51.494;-0.262;2023-06-22T17:03:44;49385.86;;;-145.72;33.13
28648;BME280;17137;51.494;-0.262;2023-06-22T17:04:21;49411.62;;;-145.72;33.81
28648;BME280;17137;51.494;-0.262;2023-06-22T17:04:52;49404.47;;;-145.72;33.82
28648;BME280;17137;51.494;-0.262;2023-06-22T17:05:23;49398.55;;;-145.72;33.72
28648;BME280;17137;51.494;-0.262;2023-06-22T17:05:56;49397.57;;;-145.72;33.65
28648;BME280;17137;51.494;-0.262;2023-06-22T17:06:26;49423.82;;;-145.72;34.42
28648;BME280;17137;51.494;-0.262;2023-06-22T17:06:58;49424.43;;;-145.72;34.40
28648;BME280;17137;51.494;-0.262;2023-06-22T17:07:34;49436.88;;;-145.72;34.80
28648;BME280;17137;51.494;-0.262;2023-06-22T17:08:08;49432.57;;;-145.72;34.75
28648;BME280;17137;51.494;-0.262;2023-06-22T17:08:43;49437.87;;;-145.72;34.95
28648;BME280;17137;51.494;-0.262;2023-06-22T17:09:14;49433.06;;;-145.72;34.89
28648;BME280;17137;51.494;-0.262;2023-06-22T17:09:46;49436.02;;;-145.72;34.91
28648;BME280;17137;51.494;-0.262;2023-06-22T17:10:17;49436.63;;;-145.72;35.05
28648;BME280;17137;51.494;-0.262;2023-06-22T17:10:50;49450.19;;;-145.72;35.40
28648;BME280;17137;51.494;-0.262;2023-06-22T17:11:21;49448.71;;;-145.72;35.55
28648;BME280;17137;51.494;-0.262;2023-06-22T17:11:53;49450.19;;;-145.72;35.58
28648;BME280;17137;51.494;-0.262;2023-06-22T17:12:25;49463.50;;;-145.72;35.96
28648;BME280;17137;51.494;-0.262;2023-06-22T17:12:55;49470.40;;;-145.72;36.10
28648;BME280;17137;51.494;-0.262;2023-06-22T17:13:26;49474.72;;;-145.72;36.31
28648;BME280;17137;51.494;-0.262;2023-06-22T17:13:57;49487.66;;;-145.72;36.62
28648;BME280;17137;51.494;-0.262;2023-06-22T17:14:27;49466.71;;;-145.72;36.30
28648;BME280;17137;51.494;-0.262;2023-06-22T17:14:58;49465.35;;;-145.72;36.25
28648;BME280;17137;51.494;-0.262;2023-06-22T17:15:29;49460.54;;;-145.72;36.23
28648;BME280;17137;51.494;-0.262;2023-06-22T17:16:01;49478.29;;;-145.72;36.49
28648;BME280;17137;51.494;-0.262;2023-06-22T17:16:34;49482.36;;;-145.72;36.42
28648;BME280;17137;51.494;-0.262;2023-06-22T17:17:05;49470.03;;;-145.72;36.38
28648;BME280;17137;51.494;-0.262;2023-06-22T17:17:38;49470.40;;;-145.72;36.48
28648;BME280;17137;51.494;-0.262;2023-06-22T17:18:09;49485.32;;;-145.72;36.85
28648;BME280;17137;51.494;-0.262;2023-06-22T17:18:40;49488.27;;;-145.72;36.69
28648;BME280;17137;51.494;-0.262;2023-06-22T17:19:11;49475.33;;;-145.72;36.54
28648;BME280;17137;51.494;-0.262;2023-06-22T17:19:42;49475.95;;;-145.72;36.72
28648;BME280;17137;51.494;-0.262;2023-06-22T17:20:13;49479.77;;;-145.72;36.57
28648;BME280;17137;51.494;-0.262;2023-06-22T17:20:43;49481.13;;;-145.72;36.46
28648;BME280;17137;51.494;-0.262;2023-06-22T17:21:21;49481.99;;;-145.72;36.44
28648;BME280;17137;51.494;-0.262;2023-06-22T17:21:51;49486.42;;;-145.72;36.71
28648;BME280;17137;51.494;-0.262;2023-06-22T17:22:22;49493.57;;;-145.72;36.93
28648;BME280;17137;51.494;-0.262;2023-06-22T17:22:52;49492.09;;;-145.72;36.84
28648;BME280;17137;51.494;-0.262;2023-06-22T17:23:24;49500.35;;;-145.72;37.28
28648;BME280;17137;51.494;-0.262;2023-06-22T17:23:54;49505.40;;;-145.72;37.26
28648;BME280;17137;51.494;-0.262;2023-06-22T17:24:54;49500.23;;;-145.72;37.01
28648;BME280;17137;51.494;-0.262;2023-06-22T17:25:24;49510.46;;;-145.72;37.36
28648;BME280;17137;51.494;-0.262;2023-06-22T17:26:00;49504.29;;;-145.72;37.39
28648;BME280;17137;51.494;-0.262;2023-06-22T17:26:31;49515.39;;;-145.72;37.60
28648;BME280;17137;51.494;-0.262;2023-06-22T17:27:01;49506.02;;;-145.72;37.48
28648;BME280;17137;51.494;-0.262;2023-06-22T17:27:33;49503.43;;;-145.72;37.52
28648;BME280;17137;51.494;-0.262;2023-06-22T17:28:04;49513.17;;;-145.72;37.62
28648;BME280;17137;51.494;-0.262;2023-06-22T17:28:46;49512.31;;;-145.72;37.63
28648;BME280;17137;51.494;-0.262;2023-06-22T17:29:17;49508.49;;;-145.72;37.60
28648;BME280;17137;51.494;-0.262;2023-06-22T17:29:47;49506.76;;;-145.72;37.58
28648;BME280;17137;51.494;-0.262;2023-06-22T17:30:32;49506.02;;;-145.72;37.61
28648;BME280;17137;51.494;-0.262;2023-06-22T17:31:10;49507.25;;;-145.72;37.57
28648;BME280;17137;51.494;-0.262;2023-06-22T17:31:41;49512.18;;;-145.72;37.70
28648;BME280;17137;51.494;-0.262;2023-06-22T17:32:12;49513.91;;;-145.72;38.02
28648;BME280;17137;51.494;-0.262;2023-06-22T17:32:45;49514.65;;;-145.72;38.01
28648;BME280;17137;51.494;-0.262;2023-06-22T17:33:17;49530.05;;;-145.72;38.40
28648;BME280;17137;51.494;-0.262;2023-06-22T17:33:49;49522.04;;;-145.72;38.46
28648;BME280;17137;51.494;-0.262;2023-06-22T17:34:19;49519.21;;;-145.72;38.38
28648;BME280;17137;51.494;-0.262;2023-06-22T17:34:53;49530.42;;;-145.72;38.43
28648;BME280;17137;51.494;-0.262;2023-06-22T17:35:23;49528.57;;;-145.72;38.34
28648;BME280;17137;51.494;-0.262;2023-06-22T17:35:53;49523.40;;;-145.72;38.36
28648;BME280;17137;51.494;-0.262;2023-06-22T17:36:26;49513.54;;;-145.72;38.11
28648;BME280;17137;51.494;-0.262;2023-06-22T17:36:57;49526.97;;;-145.72;38.17
28648;BME280;17137;51.494;-0.262;2023-06-22T17:37:33;49533.63;;;-145.72;38.30
28648;BME280;17137;51.494;-0.262;2023-06-22T17:38:04;49534.86;;;-145.72;38.38
28648;BME280;17137;51.494;-0.262;2023-06-22T17:38:36;49527.83;;;-145.72;38.24
28648;BME280;17137;51.494;-0.262;2023-06-22T17:39:06;49536.83;;;-145.72;38.40
28648;BME280;17137;51.494;-0.262;2023-06-22T17:39:39;49534.00;;;-145.72;38.37
28648;BME280;17137;51.494;-0.262;2023-06-22T17:40:14;49551.99;;;-145.72;38.74
28648;BME280;17137;51.494;-0.262;2023-06-22T17:40:44;49538.43;;;-145.72;38.55
28648;BME280;17137;51.494;-0.262;2023-06-22T17:41:15;49538.19;;;-145.72;38.68
28648;BME280;17137;51.494;-0.262;2023-06-22T17:41:46;49542.75;;;-145.72;38.57
28648;BME280;17137;51.494;-0.262;2023-06-22T17:42:21;49540.28;;;-145.72;38.62
28648;BME280;17137;51.494;-0.262;2023-06-22T17:42:52;49538.68;;;-145.72;38.51
28648;BME280;17137;51.494;-0.262;2023-06-22T17:43:32;49532.52;;;-145.72;38.45
28648;BME280;17137;51.494;-0.262;2023-06-22T17:44:04;49529.56;;;-145.72;38.44
28648;BME280;17137;51.494;-0.262;2023-06-22T17:44:34;49545.09;;;-145.72;38.79
28648;BME280;17137;51.494;-0.262;2023-06-22T17:45:14;49535.97;;;-145.72;38.90
28648;BME280;17137;51.494;-0.262;2023-06-22T17:45:45;49545.21;;;-145.72;39.06
28648;BME280;17137;51.494;-0.262;2023-06-22T17:46:21;49540.65;;;-145.72;39.00
28648;BME280;17137;51.494;-0.262;2023-06-22T17:46:52;49545.95;;;-145.72;39.44
28648;BME280;17137;51.494;-0.262;2023-06-22T17:47:23;49554.70;;;-145.72;42.12
28648;BME280;17137;51.494;-0.262;2023-06-22T17:47:54;49542.13;;;-145.72;42.06
28648;BME280;17137;51.494;-0.262;2023-06-22T17:48:24;49545.09;;;-145.72;42.23
28648;BME280;17137;51.494;-0.262;2023-06-22T17:48:54;49552.48;;;-145.72;43.39
28648;BME280;17137;51.494;-0.262;2023-06-22T17:49:27;49553.59;;;-145.72;44.91
28648;BME280;17137;51.494;-0.262;2023-06-22T17:50:06;49554.09;;;-145.72;44.23
28648;BME280;17137;51.494;-0.262;2023-06-22T17:50:39;49563.21;;;-145.72;45.66
28648;BME280;17137;51.494;-0.262;2023-06-22T17:51:09;49558.52;;;-145.72;45.62
28648;BME280;17137;51.494;-0.262;2023-06-22T17:51:40;49559.88;;;-145.72;45.21
28648;BME280;17137;51.494;-0.262;2023-06-22T17:52:16;49570.85;;;-145.72;45.55
28648;BME280;17137;51.494;-0.262;2023-06-22T17:52:50;49571.22;;;-145.72;46.56
28648;BME280;17137;51.494;-0.262;2023-06-22T17:53:26;49576.15;;;-145.72;49.00
28648;BME280;17137;51.494;-0.262;2023-06-22T17:53:56;49598.33;;;-145.72;48.44
28648;BME280;17137;51.494;-0.262;2023-06-22T17:54:30;49593.65;;;-145.72;48.87
28648;BME280;17137;51.494;-0.262;2023-06-22T17:55:01;49594.88;;;-145.72;49.26
28648;BME280;17137;51.494;-0.262;2023-06-22T17:55:33;49597.47;;;-145.72;50.36
28648;BME280;17137;51.494;-0.262;2023-06-22T17:56:03;49613.98;;;-145.72;51.13
28648;BME280;17137;51.494;-0.262;2023-06-22T17:56:34;49616.33;;;-145.72;51.74
28648;BME280;17137;51.494;-0.262;2023-06-22T17:57:14;49627.91;;;-145.72;52.22